Ty Lotus — DSNU7 — position and weather

sailwx.info

Track history (hours):
 
Tides and Currents Weather Stations Pressure Air Temp Water Temp Dewpoint Dewpoint Depression Visibility Wind Speed Wind Dir Waves Ship Positions

Ty Lotus

Last reported at 2014-Oct-21 09:21 UTC. Time now 2014-Oct-24 08:34 UTC.
Position N 34°37' E 135°02'.

Length 82 m; draft 4.7 m.

Type: Cargo ship. MMSI: 440324000.

Date/timePositionNaut miles runAvg speedWind from/ knotsBaromVisibWave heightAir tempDewpointWater temp
2014-Oct-21 09:21N 34°37' E 135°02'910.8
2014-Oct-21 08:33N 34°36' E 135°12'5 4.0
2014-Oct-21 07:26N 34°40' E 135°13'0 0.0
2014-Oct-21 06:32N 34°40' E 135°13'0 0.0
2014-Oct-21 05:26N 34°40' E 135°13'0 0.0
2014-Oct-21 04:20N 34°40' E 135°13'0 0.0
2014-Oct-21 03:32N 34°40' E 135°13'0 0.0
2014-Oct-21 02:32N 34°40' E 135°13'0 0.0
2014-Oct-21 01:26N 34°40' E 135°13'0 0.0
2014-Oct-21 00:20N 34°40' E 135°13'0 0.0
2014-Oct-20 23:32N 34°40' E 135°13'0 0.4
2014-Oct-20 22:33N 34°40' E 135°14'4 3.1
2014-Oct-20 21:22N 34°39' E 135°18'0 0.0
2014-Oct-20 20:04N 34°39' E 135°18'0 0.0
2014-Oct-20 19:33N 34°39' E 135°18'0 0.0
2014-Oct-20 18:33N 34°39' E 135°18'0 0.0
2014-Oct-20 17:33N 34°39' E 135°18'0 0.0
2014-Oct-20 16:33N 34°39' E 135°18'0 0.0
2014-Oct-20 15:33N 34°39' E 135°18'0 0.0
2014-Oct-20 14:33N 34°39' E 135°18'0 0.0
2014-Oct-20 13:21N 34°39' E 135°18'0 0.0
2014-Oct-20 12:15N 34°39' E 135°18'0 0.0
2014-Oct-20 11:27N 34°39' E 135°18'0 0.0
2014-Oct-20 10:33N 34°39' E 135°18'0 0.0
2014-Oct-20 09:33N 34°39' E 135°18'3 3.1
2014-Oct-20 08:33N 34°37' E 135°21'3 3.1
2014-Oct-20 07:26N 34°38' E 135°25'0 0.0
2014-Oct-20 06:32N 34°38' E 135°25'0 0.0
2014-Oct-20 05:32N 34°38' E 135°25'0 0.0
2014-Oct-20 04:32N 34°38' E 135°25'0 0.0
2014-Oct-20 03:26N 34°38' E 135°25'0 0.0
2014-Oct-20 02:32N 34°38' E 135°25'0 0.0
2014-Oct-20 01:26N 34°38' E 135°25'0 0.0
2014-Oct-20 00:32N 34°38' E 135°25'0 0.0
2014-Oct-19 23:26N 34°38' E 135°25'0 0.0
2014-Oct-19 22:20N 34°38' E 135°25'0 0.0
2014-Oct-19 21:32N 34°38' E 135°25'0 0.0
2014-Oct-19 20:32N 34°38' E 135°25'0 0.0
2014-Oct-19 19:29N 34°38' E 135°25'0 0.0
2014-Oct-19 18:29N 34°38' E 135°25'0 0.0
2014-Oct-19 17:29N 34°38' E 135°25'0 0.0
2014-Oct-19 16:23N 34°38' E 135°25'0 0.0
2014-Oct-19 15:29N 34°38' E 135°25'0 0.0
2014-Oct-19 14:11N 34°38' E 135°25'0 0.0
2014-Oct-19 13:23N 34°38' E 135°25'0 0.0
2014-Oct-19 12:29N 34°38' E 135°25'0 0.0
2014-Oct-19 11:29N 34°38' E 135°25'0 0.0
2014-Oct-19 10:29N 34°38' E 135°25'0 0.0
2014-Oct-19 09:29N 34°38' E 135°25'0 0.0
2014-Oct-19 08:29N 34°38' E 135°25'0 0.0
2014-Oct-19 07:17N 34°38' E 135°25'0 0.0
2014-Oct-19 06:29N 34°38' E 135°25'0 0.0
2014-Oct-19 05:12N 34°38' E 135°25'0 0.0
2014-Oct-19 04:30N 34°38' E 135°25'0 0.0
2014-Oct-19 03:24N 34°38' E 135°25'0 0.0
2014-Oct-19 02:24N 34°38' E 135°25'0 0.0
2014-Oct-19 01:30N 34°38' E 135°25'0 0.0
2014-Oct-19 00:12N 34°38' E 135°25'0 0.0
2014-Oct-18 23:30N 34°38' E 135°25'0 0.0
2014-Oct-18 22:24N 34°38' E 135°25'0 0.0
2014-Oct-18 21:24N 34°38' E 135°25'0 0.0
2014-Oct-18 20:30N 34°38' E 135°25'0 0.0
2014-Oct-18 19:30N 34°38' E 135°25'0 0.0
2014-Oct-18 18:30N 34°38' E 135°25'0 0.0
2014-Oct-18 17:30N 34°38' E 135°25'0 0.0
2014-Oct-18 16:30N 34°38' E 135°25'0 0.0
2014-Oct-18 15:30N 34°38' E 135°25'0 0.0
2014-Oct-18 14:30N 34°38' E 135°25'0 0.0
2014-Oct-18 13:30N 34°38' E 135°25'0 0.0
2014-Oct-18 12:30N 34°38' E 135°25'0 0.0
2014-Oct-18 11:30N 34°38' E 135°25'0 0.0
2014-Oct-18 10:30N 34°38' E 135°25'0 0.0
2014-Oct-18 09:24N 34°38' E 135°25'0 0.0
2014-Oct-18 08:30N 34°38' E 135°25'0 0.0
2014-Oct-18 07:30N 34°38' E 135°25'0 0.0
2014-Oct-18 06:18N 34°38' E 135°25'2 3.2
2014-Oct-18 05:33N 34°37' E 135°22'6 0.9
2014-Oct-17 22:16N 34°31' E 135°23'2 2.8
2014-Oct-17 21:32N 34°32' E 135°21'0 0.1
2014-Oct-17 20:32N 34°32' E 135°21'0 0.0
2014-Oct-17 19:32N 34°32' E 135°21'0 0.0
2014-Oct-17 18:20N 34°32' E 135°21'0 0.0
2014-Oct-17 17:14N 34°32' E 135°21'0 0.0
2014-Oct-17 16:26N 34°32' E 135°21'0 0.0
2014-Oct-17 15:20N 34°32' E 135°21'0 0.0
2014-Oct-17 14:33N 34°32' E 135°21'0 0.0
2014-Oct-17 13:23N 34°32' E 135°21'0 0.0
2014-Oct-17 12:29N 34°32' E 135°21'0 0.1
2014-Oct-17 11:29N 34°32' E 135°21'0 0.0
2014-Oct-17 10:29N 34°32' E 135°21'0 0.0
2014-Oct-17 09:31N 34°32' E 135°21'3 2.8
2014-Oct-17 08:33N 34°35' E 135°21'4 2.8
2014-Oct-17 07:15N 34°38' E 135°24'0 0.0
2014-Oct-17 06:15N 34°38' E 135°24'0 0.0
2014-Oct-17 05:33N 34°38' E 135°24'0 0.0
2014-Oct-17 04:27N 34°38' E 135°24'0 0.0
2014-Oct-17 03:15N 34°38' E 135°24'0 0.0
2014-Oct-17 02:27N 34°38' E 135°24'0 0.0
2014-Oct-17 01:21N 34°38' E 135°24'0 0.0
2014-Oct-17 00:09N 34°38' E 135°24'0 0.0
2014-Oct-16 23:27N 34°38' E 135°24'0 0.0
2014-Oct-16 22:27N 34°38' E 135°24'3 3.0
2014-Oct-16 21:33N 34°37' E 135°21'9 9.3
2014-Oct-16 20:33N 34°30' E 135°14'8 8.3
2014-Oct-16 19:33N 34°25' E 135°06'9 9.1
2014-Oct-16 18:33N 34°33' E 135°04'  
Track history (hours):
 
Tides and Currents Weather Stations Pressure Air Temp Water Temp Dewpoint Dewpoint Depression Visibility Wind Speed Wind Dir Waves Ship Positions

Ty Lotus

Last reported at 2014-Oct-21 09:21 UTC. Time now 2014-Oct-24 08:34 UTC.
Position N 34°37' E 135°02'.

Length 82 m; draft 4.7 m.

Type: Cargo ship. MMSI: 440324000.

Date/timePositionNaut miles runAvg speedWind from/ knotsBaromVisibWave heightAir tempDewpointWater temp
2014-Oct-21 09:21N 34°37' E 135°02'910.8
2014-Oct-21 08:33N 34°36' E 135°12'5 4.0
2014-Oct-21 07:26N 34°40' E 135°13'0 0.0
2014-Oct-21 06:32N 34°40' E 135°13'0 0.0
2014-Oct-21 05:26N 34°40' E 135°13'0 0.0
2014-Oct-21 04:20N 34°40' E 135°13'0 0.0
2014-Oct-21 03:32N 34°40' E 135°13'0 0.0
2014-Oct-21 02:32N 34°40' E 135°13'0 0.0
2014-Oct-21 01:26N 34°40' E 135°13'0 0.0
2014-Oct-21 00:20N 34°40' E 135°13'0 0.0
2014-Oct-20 23:32N 34°40' E 135°13'0 0.4
2014-Oct-20 22:33N 34°40' E 135°14'4 3.1
2014-Oct-20 21:22N 34°39' E 135°18'0 0.0
2014-Oct-20 20:04N 34°39' E 135°18'0 0.0
2014-Oct-20 19:33N 34°39' E 135°18'0 0.0
2014-Oct-20 18:33N 34°39' E 135°18'0 0.0
2014-Oct-20 17:33N 34°39' E 135°18'0 0.0
2014-Oct-20 16:33N 34°39' E 135°18'0 0.0
2014-Oct-20 15:33N 34°39' E 135°18'0 0.0
2014-Oct-20 14:33N 34°39' E 135°18'0 0.0
2014-Oct-20 13:21N 34°39' E 135°18'0 0.0
2014-Oct-20 12:15N 34°39' E 135°18'0 0.0
2014-Oct-20 11:27N 34°39' E 135°18'0 0.0
2014-Oct-20 10:33N 34°39' E 135°18'0 0.0
2014-Oct-20 09:33N 34°39' E 135°18'3 3.1
2014-Oct-20 08:33N 34°37' E 135°21'3 3.1
2014-Oct-20 07:26N 34°38' E 135°25'0 0.0
2014-Oct-20 06:32N 34°38' E 135°25'0 0.0
2014-Oct-20 05:32N 34°38' E 135°25'0 0.0
2014-Oct-20 04:32N 34°38' E 135°25'0 0.0
2014-Oct-20 03:26N 34°38' E 135°25'0 0.0
2014-Oct-20 02:32N 34°38' E 135°25'0 0.0
2014-Oct-20 01:26N 34°38' E 135°25'0 0.0
2014-Oct-20 00:32N 34°38' E 135°25'0 0.0
2014-Oct-19 23:26N 34°38' E 135°25'0 0.0
2014-Oct-19 22:20N 34°38' E 135°25'0 0.0
2014-Oct-19 21:32N 34°38' E 135°25'0 0.0
2014-Oct-19 20:32N 34°38' E 135°25'0 0.0
2014-Oct-19 19:29N 34°38' E 135°25'0 0.0
2014-Oct-19 18:29N 34°38' E 135°25'0 0.0
2014-Oct-19 17:29N 34°38' E 135°25'0 0.0
2014-Oct-19 16:23N 34°38' E 135°25'0 0.0
2014-Oct-19 15:29N 34°38' E 135°25'0 0.0
2014-Oct-19 14:11N 34°38' E 135°25'0 0.0
2014-Oct-19 13:23N 34°38' E 135°25'0 0.0
2014-Oct-19 12:29N 34°38' E 135°25'0 0.0
2014-Oct-19 11:29N 34°38' E 135°25'0 0.0
2014-Oct-19 10:29N 34°38' E 135°25'0 0.0
2014-Oct-19 09:29N 34°38' E 135°25'0 0.0
2014-Oct-19 08:29N 34°38' E 135°25'0 0.0
2014-Oct-19 07:17N 34°38' E 135°25'0 0.0
2014-Oct-19 06:29N 34°38' E 135°25'0 0.0
2014-Oct-19 05:12N 34°38' E 135°25'0 0.0
2014-Oct-19 04:30N 34°38' E 135°25'0 0.0
2014-Oct-19 03:24N 34°38' E 135°25'0 0.0
2014-Oct-19 02:24N 34°38' E 135°25'0 0.0
2014-Oct-19 01:30N 34°38' E 135°25'0 0.0
2014-Oct-19 00:12N 34°38' E 135°25'0 0.0
2014-Oct-18 23:30N 34°38' E 135°25'0 0.0
2014-Oct-18 22:24N 34°38' E 135°25'0 0.0
2014-Oct-18 21:24N 34°38' E 135°25'0 0.0
2014-Oct-18 20:30N 34°38' E 135°25'0 0.0
2014-Oct-18 19:30N 34°38' E 135°25'0 0.0
2014-Oct-18 18:30N 34°38' E 135°25'0 0.0
2014-Oct-18 17:30N 34°38' E 135°25'0 0.0
2014-Oct-18 16:30N 34°38' E 135°25'0 0.0
2014-Oct-18 15:30N 34°38' E 135°25'0 0.0
2014-Oct-18 14:30N 34°38' E 135°25'0 0.0
2014-Oct-18 13:30N 34°38' E 135°25'0 0.0
2014-Oct-18 12:30N 34°38' E 135°25'0 0.0
2014-Oct-18 11:30N 34°38' E 135°25'0 0.0
2014-Oct-18 10:30N 34°38' E 135°25'0 0.0
2014-Oct-18 09:24N 34°38' E 135°25'0 0.0
2014-Oct-18 08:30N 34°38' E 135°25'0 0.0
2014-Oct-18 07:30N 34°38' E 135°25'0 0.0
2014-Oct-18 06:18N 34°38' E 135°25'2 3.2
2014-Oct-18 05:33N 34°37' E 135°22'6 0.9
2014-Oct-17 22:16N 34°31' E 135°23'2 2.8
2014-Oct-17 21:32N 34°32' E 135°21'0 0.1
2014-Oct-17 20:32N 34°32' E 135°21'0 0.0
2014-Oct-17 19:32N 34°32' E 135°21'0 0.0
2014-Oct-17 18:20N 34°32' E 135°21'0 0.0
2014-Oct-17 17:14N 34°32' E 135°21'0 0.0
2014-Oct-17 16:26N 34°32' E 135°21'0 0.0
2014-Oct-17 15:20N 34°32' E 135°21'0 0.0
2014-Oct-17 14:33N 34°32' E 135°21'0 0.0
2014-Oct-17 13:23N 34°32' E 135°21'0 0.0
2014-Oct-17 12:29N 34°32' E 135°21'0 0.1
2014-Oct-17 11:29N 34°32' E 135°21'0 0.0
2014-Oct-17 10:29N 34°32' E 135°21'0 0.0
2014-Oct-17 09:31N 34°32' E 135°21'3 2.8
2014-Oct-17 08:33N 34°35' E 135°21'4 2.8
2014-Oct-17 07:15N 34°38' E 135°24'0 0.0
2014-Oct-17 06:15N 34°38' E 135°24'0 0.0
2014-Oct-17 05:33N 34°38' E 135°24'0 0.0
2014-Oct-17 04:27N 34°38' E 135°24'0 0.0
2014-Oct-17 03:15N 34°38' E 135°24'0 0.0
2014-Oct-17 02:27N 34°38' E 135°24'0 0.0
2014-Oct-17 01:21N 34°38' E 135°24'0 0.0
2014-Oct-17 00:09N 34°38' E 135°24'0 0.0
2014-Oct-16 23:27N 34°38' E 135°24'0 0.0
2014-Oct-16 22:27N 34°38' E 135°24'3 3.0
2014-Oct-16 21:33N 34°37' E 135°21'9 9.3
2014-Oct-16 20:33N 34°30' E 135°14'8 8.3
2014-Oct-16 19:33N 34°25' E 135°06'9 9.1
2014-Oct-16 18:33N 34°33' E 135°04'  

Dump ship's entire track history